Joslin Field Magic Valley Regional Airport
KTWF : rendu visible

Aérodrome :











RETROUVEZ-NOUS SUR...

 
LOGIN :

S'inscrire | Disclaimer

   EN    FR    IT 

 









Légende :    VFR   VFR Marginal   IFR   IFR Intensif   IFR Très Intensif
Visi : 
Plafond : 
>= 8 km
>= 3000ft
5 à 8 km
1000 à 3000 ft
1500m à 5 km
500 à 1000 ft
800 à 1500m
200 à 500 ft
< 800m
< 200 ft
Symboles :   Orages  Brouillard  Fortes neiges  Fortes précipitations  Vent > 20 kt






- Altitude de l'aérodrome : 4154 ft
- Code IATA : TWF


KTWF - Joslin Field Magic Valley Regional

DERNIER METAR :
  • 111653Z 09008KT 10SM CLR 26/11 A3019 RMK AO2 SLP169 T02560111

METARs EXPIRÉS :
  • 111553Z 10008KT 10SM CLR 22/11 A3020 RMK AO2 SLP180 T02170106
  • 111453Z 00000KT 10SM CLR 22/07 A3020 RMK AO2 SLP170 T02170067 50005

TAF KTWF
Valide du 11 à 18h jusqu'au 12 à 18h UTC


111723Z 1118/1218 09008KT P6SM SKC
FM120300 21010KT P6SM SKC
FM121500 26015G25KT P6SM SKC
FIR KZLC / Amérique du Nord



MET'MAP, la Météo Aéronautique d'un coup d'oeil ! - Copyright ORBIFLY Décembre 2007 - Disclaimer

ORBIFLY MET'MAP TEAM :

Programmation & Développement : Alexandra Zaïnal
Sur une idée originale de : Baudouin d'Aumeries
Assistance à la programmation : Marc-Olivier Méhu
Soutien technique & logistique : Manuel Goepfert

Contact : metmap@orbifly.com




SOURCES & CREDITS :

   NOAA       Earth
Advisory